sensor_id;sensor_type;location;lat;lon;timestamp;P1;durP1;ratioP1;P2;durP2;ratioP2
2320;SDS011;15376;48.540;9.268;2023-04-08T00:02:07;11.80;;;10.60;;
2320;SDS011;15376;48.540;9.268;2023-04-08T00:04:33;11.07;;;10.07;;
2320;SDS011;15376;48.540;9.268;2023-04-08T00:06:58;11.30;;;10.20;;
2320;SDS011;15376;48.540;9.268;2023-04-08T00:09:24;11.03;;;10.03;;
2320;SDS011;15376;48.540;9.268;2023-04-08T00:11:49;11.27;;;10.17;;
2320;SDS011;15376;48.540;9.268;2023-04-08T00:14:14;11.57;;;10.47;;
2320;SDS011;15376;48.540;9.268;2023-04-08T00:16:40;12.13;;;11.03;;
2320;SDS011;15376;48.540;9.268;2023-04-08T00:19:05;12.30;;;11.00;;
2320;SDS011;15376;48.540;9.268;2023-04-08T00:21:31;11.60;;;10.13;;
2320;SDS011;15376;48.540;9.268;2023-04-08T00:23:56;11.47;;;10.37;;
2320;SDS011;15376;48.540;9.268;2023-04-08T00:26:22;12.97;;;11.67;;
2320;SDS011;15376;48.540;9.268;2023-04-08T00:28:47;13.63;;;11.97;;
2320;SDS011;15376;48.540;9.268;2023-04-08T00:31:12;11.73;;;10.73;;
2320;SDS011;15376;48.540;9.268;2023-04-08T00:33:38;13.50;;;12.13;;
2320;SDS011;15376;48.540;9.268;2023-04-08T00:36:03;12.97;;;11.70;;
2320;SDS011;15376;48.540;9.268;2023-04-08T00:38:29;16.27;;;13.30;;
2320;SDS011;15376;48.540;9.268;2023-04-08T00:40:55;16.87;;;12.20;;
2320;SDS011;15376;48.540;9.268;2023-04-08T00:43:20;15.47;;;11.70;;
2320;SDS011;15376;48.540;9.268;2023-04-08T00:45:46;12.57;;;11.37;;
2320;SDS011;15376;48.540;9.268;2023-04-08T00:48:12;14.07;;;12.60;;
2320;SDS011;15376;48.540;9.268;2023-04-08T00:50:37;11.97;;;10.70;;
2320;SDS011;15376;48.540;9.268;2023-04-08T00:53:03;13.13;;;11.37;;
2320;SDS011;15376;48.540;9.268;2023-04-08T00:55:28;14.07;;;11.57;;
2320;SDS011;15376;48.540;9.268;2023-04-08T00:57:54;13.70;;;12.27;;
2320;SDS011;15376;48.540;9.268;2023-04-08T01:00:20;13.00;;;11.73;;
2320;SDS011;15376;48.540;9.268;2023-04-08T01:02:50;14.43;;;11.60;;
2320;SDS011;15376;48.540;9.268;2023-04-08T01:07:52;17.50;;;12.20;;
2320;SDS011;15376;48.540;9.268;2023-04-08T01:10:21;13.00;;;11.70;;
2320;SDS011;15376;48.540;9.268;2023-04-08T01:13:02;13.87;;;12.43;;
2320;SDS011;15376;48.540;9.268;2023-04-08T01:15:32;12.77;;;11.50;;
2320;SDS011;15376;48.540;9.268;2023-04-08T01:18:00;13.60;;;11.90;;
2320;SDS011;15376;48.540;9.268;2023-04-08T01:20:31;13.40;;;11.97;;
2320;SDS011;15376;48.540;9.268;2023-04-08T01:23:00;17.70;;;13.00;;
2320;SDS011;15376;48.540;9.268;2023-04-08T01:25:34;18.40;;;13.53;;
2320;SDS011;15376;48.540;9.268;2023-04-08T01:28:06;16.03;;;14.27;;
2320;SDS011;15376;48.540;9.268;2023-04-08T01:30:34;15.33;;;11.57;;
2320;SDS011;15376;48.540;9.268;2023-04-08T01:33:02;15.30;;;13.03;;
2320;SDS011;15376;48.540;9.268;2023-04-08T01:35:29;23.37;;;16.83;;
2320;SDS011;15376;48.540;9.268;2023-04-08T01:37:56;17.93;;;14.77;;
2320;SDS011;15376;48.540;9.268;2023-04-08T01:40:23;23.70;;;15.80;;
2320;SDS011;15376;48.540;9.268;2023-04-08T01:42:48;23.83;;;17.47;;
2320;SDS011;15376;48.540;9.268;2023-04-08T01:45:17;23.40;;;18.50;;
2320;SDS011;15376;48.540;9.268;2023-04-08T01:47:44;19.53;;;16.37;;
2320;SDS011;15376;48.540;9.268;2023-04-08T01:50:13;23.57;;;16.90;;
2320;SDS011;15376;48.540;9.268;2023-04-08T01:52:40;20.77;;;16.23;;
2320;SDS011;15376;48.540;9.268;2023-04-08T01:55:08;21.13;;;17.97;;
2320;SDS011;15376;48.540;9.268;2023-04-08T01:57:34;24.23;;;16.87;;
2320;SDS011;15376;48.540;9.268;2023-04-08T02:00:05;20.83;;;16.93;;
2320;SDS011;15376;48.540;9.268;2023-04-08T02:02:34;21.43;;;16.50;;
2320;SDS011;15376;48.540;9.268;2023-04-08T02:05:01;20.77;;;18.27;;
2320;SDS011;15376;48.540;9.268;2023-04-08T02:07:27;25.03;;;17.70;;
2320;SDS011;15376;48.540;9.268;2023-04-08T02:09:52;20.90;;;16.60;;
2320;SDS011;15376;48.540;9.268;2023-04-08T02:12:18;22.30;;;16.13;;
2320;SDS011;15376;48.540;9.268;2023-04-08T02:14:43;21.30;;;16.47;;
2320;SDS011;15376;48.540;9.268;2023-04-08T02:17:30;21.47;;;17.97;;
2320;SDS011;15376;48.540;9.268;2023-04-08T02:20:09;20.20;;;17.37;;
2320;SDS011;15376;48.540;9.268;2023-04-08T02:25:29;23.00;;;16.80;;
2320;SDS011;15376;48.540;9.268;2023-04-08T02:27:59;20.30;;;16.20;;
2320;SDS011;15376;48.540;9.268;2023-04-08T02:30:28;24.73;;;17.20;;
2320;SDS011;15376;48.540;9.268;2023-04-08T02:32:56;21.93;;;18.03;;
2320;SDS011;15376;48.540;9.268;2023-04-08T02:35:22;23.03;;;16.90;;
2320;SDS011;15376;48.540;9.268;2023-04-08T02:37:48;24.30;;;17.73;;
2320;SDS011;15376;48.540;9.268;2023-04-08T02:40:24;21.10;;;17.17;;
2320;SDS011;15376;48.540;9.268;2023-04-08T02:42:52;21.13;;;17.80;;
2320;SDS011;15376;48.540;9.268;2023-04-08T02:45:18;20.60;;;16.57;;
2320;SDS011;15376;48.540;9.268;2023-04-08T02:47:44;21.87;;;17.20;;
2320;SDS011;15376;48.540;9.268;2023-04-08T02:50:10;24.30;;;19.37;;
2320;SDS011;15376;48.540;9.268;2023-04-08T02:52:35;23.60;;;18.00;;
2320;SDS011;15376;48.540;9.268;2023-04-08T02:55:00;18.93;;;16.17;;
2320;SDS011;15376;48.540;9.268;2023-04-08T02:57:26;25.17;;;17.00;;
2320;SDS011;15376;48.540;9.268;2023-04-08T02:59:51;20.77;;;16.90;;
2320;SDS011;15376;48.540;9.268;2023-04-08T03:02:16;26.40;;;18.40;;
2320;SDS011;15376;48.540;9.268;2023-04-08T03:04:42;20.43;;;16.53;;
2320;SDS011;15376;48.540;9.268;2023-04-08T03:07:07;20.80;;;17.50;;
2320;SDS011;15376;48.540;9.268;2023-04-08T03:09:32;18.10;;;14.17;;
2320;SDS011;15376;48.540;9.268;2023-04-08T03:11:58;23.13;;;17.57;;
2320;SDS011;15376;48.540;9.268;2023-04-08T03:14:23;17.77;;;15.63;;
2320;SDS011;15376;48.540;9.268;2023-04-08T03:16:48;21.53;;;16.43;;
2320;SDS011;15376;48.540;9.268;2023-04-08T03:19:14;22.73;;;15.97;;
2320;SDS011;15376;48.540;9.268;2023-04-08T03:21:40;25.27;;;18.70;;
2320;SDS011;15376;48.540;9.268;2023-04-08T03:24:05;23.10;;;15.40;;
2320;SDS011;15376;48.540;9.268;2023-04-08T03:26:30;18.50;;;14.73;;
2320;SDS011;15376;48.540;9.268;2023-04-08T03:28:56;20.97;;;17.10;;
2320;SDS011;15376;48.540;9.268;2023-04-08T03:31:21;18.43;;;14.90;;
2320;SDS011;15376;48.540;9.268;2023-04-08T03:33:47;17.73;;;15.30;;
2320;SDS011;15376;48.540;9.268;2023-04-08T03:36:12;20.93;;;16.93;;
2320;SDS011;15376;48.540;9.268;2023-04-08T03:38:37;21.53;;;17.73;;
2320;SDS011;15376;48.540;9.268;2023-04-08T03:41:03;18.97;;;15.30;;
2320;SDS011;15376;48.540;9.268;2023-04-08T03:43:28;21.00;;;16.73;;
2320;SDS011;15376;48.540;9.268;2023-04-08T03:45:54;21.80;;;17.87;;
2320;SDS011;15376;48.540;9.268;2023-04-08T03:48:20;20.73;;;17.20;;
2320;SDS011;15376;48.540;9.268;2023-04-08T03:50:45;20.93;;;16.60;;
2320;SDS011;15376;48.540;9.268;2023-04-08T03:53:10;21.87;;;15.60;;
2320;SDS011;15376;48.540;9.268;2023-04-08T03:55:36;24.43;;;17.23;;
2320;SDS011;15376;48.540;9.268;2023-04-08T03:58:02;24.70;;;18.50;;
2320;SDS011;15376;48.540;9.268;2023-04-08T04:00:28;19.70;;;16.50;;
2320;SDS011;15376;48.540;9.268;2023-04-08T04:02:53;24.33;;;16.57;;
2320;SDS011;15376;48.540;9.268;2023-04-08T04:05:20;21.10;;;17.47;;
2320;SDS011;15376;48.540;9.268;2023-04-08T04:07:45;23.70;;;17.10;;
2320;SDS011;15376;48.540;9.268;2023-04-08T04:10:10;22.90;;;17.20;;
2320;SDS011;15376;48.540;9.268;2023-04-08T04:12:36;24.43;;;17.90;;
2320;SDS011;15376;48.540;9.268;2023-04-08T04:15:01;20.13;;;16.70;;
2320;SDS011;15376;48.540;9.268;2023-04-08T04:17:27;20.57;;;17.87;;
2320;SDS011;15376;48.540;9.268;2023-04-08T04:19:52;23.03;;;17.87;;
2320;SDS011;15376;48.540;9.268;2023-04-08T04:22:17;22.27;;;17.33;;
2320;SDS011;15376;48.540;9.268;2023-04-08T04:24:46;28.50;;;18.40;;
2320;SDS011;15376;48.540;9.268;2023-04-08T04:27:12;24.50;;;18.83;;
2320;SDS011;15376;48.540;9.268;2023-04-08T04:29:38;25.93;;;18.17;;
2320;SDS011;15376;48.540;9.268;2023-04-08T04:32:03;22.80;;;16.43;;
2320;SDS011;15376;48.540;9.268;2023-04-08T04:34:29;23.60;;;17.53;;
2320;SDS011;15376;48.540;9.268;2023-04-08T04:36:54;23.60;;;17.10;;
2320;SDS011;15376;48.540;9.268;2023-04-08T04:39:19;22.97;;;17.40;;
2320;SDS011;15376;48.540;9.268;2023-04-08T04:41:45;21.40;;;16.83;;
2320;SDS011;15376;48.540;9.268;2023-04-08T04:44:11;31.57;;;18.10;;
2320;SDS011;15376;48.540;9.268;2023-04-08T04:46:37;19.83;;;16.13;;
2320;SDS011;15376;48.540;9.268;2023-04-08T04:49:02;24.27;;;18.57;;
2320;SDS011;15376;48.540;9.268;2023-04-08T04:51:29;27.83;;;17.60;;
2320;SDS011;15376;48.540;9.268;2023-04-08T04:53:55;25.70;;;18.47;;
2320;SDS011;15376;48.540;9.268;2023-04-08T04:56:20;20.70;;;16.93;;
2320;SDS011;15376;48.540;9.268;2023-04-08T04:58:46;25.70;;;18.60;;
2320;SDS011;15376;48.540;9.268;2023-04-08T05:01:11;27.87;;;19.80;;
2320;SDS011;15376;48.540;9.268;2023-04-08T05:03:36;28.13;;;17.73;;
2320;SDS011;15376;48.540;9.268;2023-04-08T05:06:02;24.20;;;18.20;;
2320;SDS011;15376;48.540;9.268;2023-04-08T05:08:27;23.50;;;17.60;;
2320;SDS011;15376;48.540;9.268;2023-04-08T05:10:53;25.57;;;19.07;;
2320;SDS011;15376;48.540;9.268;2023-04-08T05:13:20;22.63;;;16.37;;
2320;SDS011;15376;48.540;9.268;2023-04-08T05:15:45;29.83;;;17.47;;
2320;SDS011;15376;48.540;9.268;2023-04-08T05:18:10;22.47;;;17.77;;
2320;SDS011;15376;48.540;9.268;2023-04-08T05:20:36;25.83;;;17.57;;
2320;SDS011;15376;48.540;9.268;2023-04-08T05:23:01;21.20;;;15.30;;
2320;SDS011;15376;48.540;9.268;2023-04-08T05:25:27;21.57;;;16.87;;
2320;SDS011;15376;48.540;9.268;2023-04-08T05:27:53;21.80;;;15.97;;
2320;SDS011;15376;48.540;9.268;2023-04-08T05:30:18;26.63;;;17.60;;
2320;SDS011;15376;48.540;9.268;2023-04-08T05:32:44;24.13;;;17.50;;
2320;SDS011;15376;48.540;9.268;2023-04-08T05:35:10;24.37;;;16.60;;
2320;SDS011;15376;48.540;9.268;2023-04-08T05:37:35;19.40;;;14.63;;
2320;SDS011;15376;48.540;9.268;2023-04-08T05:40:01;22.37;;;16.80;;
2320;SDS011;15376;48.540;9.268;2023-04-08T05:42:26;20.53;;;15.87;;
2320;SDS011;15376;48.540;9.268;2023-04-08T05:44:51;22.77;;;16.70;;
2320;SDS011;15376;48.540;9.268;2023-04-08T05:47:17;21.60;;;16.30;;
2320;SDS011;15376;48.540;9.268;2023-04-08T05:49:42;27.40;;;16.90;;
2320;SDS011;15376;48.540;9.268;2023-04-08T05:52:07;22.70;;;16.80;;
2320;SDS011;15376;48.540;9.268;2023-04-08T05:54:33;19.97;;;15.93;;
2320;SDS011;15376;48.540;9.268;2023-04-08T05:56:58;20.47;;;15.87;;
2320;SDS011;15376;48.540;9.268;2023-04-08T05:59:23;19.37;;;15.47;;
2320;SDS011;15376;48.540;9.268;2023-04-08T06:01:49;21.60;;;16.50;;
2320;SDS011;15376;48.540;9.268;2023-04-08T06:04:14;18.60;;;15.63;;
2320;SDS011;15376;48.540;9.268;2023-04-08T06:06:41;18.37;;;14.70;;
2320;SDS011;15376;48.540;9.268;2023-04-08T06:09:07;20.50;;;14.60;;
2320;SDS011;15376;48.540;9.268;2023-04-08T06:11:33;17.27;;;15.37;;
2320;SDS011;15376;48.540;9.268;2023-04-08T06:13:59;22.50;;;16.77;;
2320;SDS011;15376;48.540;9.268;2023-04-08T06:16:24;16.67;;;14.87;;
2320;SDS011;15376;48.540;9.268;2023-04-08T06:18:50;18.03;;;14.87;;
2320;SDS011;15376;48.540;9.268;2023-04-08T06:21:16;19.60;;;16.30;;
2320;SDS011;15376;48.540;9.268;2023-04-08T06:23:41;19.73;;;15.20;;
2320;SDS011;15376;48.540;9.268;2023-04-08T06:26:07;22.83;;;17.67;;
2320;SDS011;15376;48.540;9.268;2023-04-08T06:28:32;27.53;;;18.50;;
2320;SDS011;15376;48.540;9.268;2023-04-08T06:30:58;26.17;;;18.67;;
2320;SDS011;15376;48.540;9.268;2023-04-08T06:33:23;24.90;;;17.70;;
2320;SDS011;15376;48.540;9.268;2023-04-08T06:35:49;20.13;;;17.10;;
2320;SDS011;15376;48.540;9.268;2023-04-08T06:38:14;23.60;;;17.40;;
2320;SDS011;15376;48.540;9.268;2023-04-08T06:40:40;22.37;;;17.50;;
2320;SDS011;15376;48.540;9.268;2023-04-08T06:43:06;18.60;;;16.43;;
2320;SDS011;15376;48.540;9.268;2023-04-08T06:45:32;23.77;;;17.07;;
2320;SDS011;15376;48.540;9.268;2023-04-08T06:48:00;20.70;;;16.80;;
2320;SDS011;15376;48.540;9.268;2023-04-08T06:50:25;31.80;;;24.20;;
2320;SDS011;15376;48.540;9.268;2023-04-08T06:52:51;26.73;;;20.43;;
2320;SDS011;15376;48.540;9.268;2023-04-08T06:55:16;26.23;;;17.97;;
2320;SDS011;15376;48.540;9.268;2023-04-08T06:57:42;21.80;;;17.97;;
2320;SDS011;15376;48.540;9.268;2023-04-08T07:00:07;23.97;;;18.07;;
2320;SDS011;15376;48.540;9.268;2023-04-08T07:02:33;23.03;;;17.80;;
2320;SDS011;15376;48.540;9.268;2023-04-08T07:04:58;21.87;;;18.20;;
2320;SDS011;15376;48.540;9.268;2023-04-08T07:07:24;22.07;;;15.57;;
2320;SDS011;15376;48.540;9.268;2023-04-08T07:09:50;18.40;;;13.93;;
2320;SDS011;15376;48.540;9.268;2023-04-08T07:12:15;19.00;;;12.93;;
2320;SDS011;15376;48.540;9.268;2023-04-08T07:14:41;21.47;;;15.03;;
2320;SDS011;15376;48.540;9.268;2023-04-08T07:17:06;14.90;;;12.53;;
2320;SDS011;15376;48.540;9.268;2023-04-08T07:19:31;17.17;;;13.60;;
2320;SDS011;15376;48.540;9.268;2023-04-08T07:21:57;15.80;;;12.90;;
2320;SDS011;15376;48.540;9.268;2023-04-08T07:24:22;16.87;;;13.07;;
2320;SDS011;15376;48.540;9.268;2023-04-08T07:26:48;13.80;;;12.37;;
2320;SDS011;15376;48.540;9.268;2023-04-08T07:29:13;13.77;;;12.27;;
2320;SDS011;15376;48.540;9.268;2023-04-08T07:31:42;17.60;;;13.63;;
2320;SDS011;15376;48.540;9.268;2023-04-08T07:34:08;15.93;;;14.23;;
2320;SDS011;15376;48.540;9.268;2023-04-08T07:36:33;17.90;;;14.10;;
2320;SDS011;15376;48.540;9.268;2023-04-08T07:38:59;15.07;;;13.33;;
2320;SDS011;15376;48.540;9.268;2023-04-08T07:41:24;16.90;;;14.47;;
2320;SDS011;15376;48.540;9.268;2023-04-08T07:43:49;17.53;;;14.03;;
2320;SDS011;15376;48.540;9.268;2023-04-08T07:46:15;17.87;;;14.83;;
2320;SDS011;15376;48.540;9.268;2023-04-08T07:48:40;15.33;;;13.13;;
2320;SDS011;15376;48.540;9.268;2023-04-08T07:51:06;15.60;;;14.00;;
2320;SDS011;15376;48.540;9.268;2023-04-08T07:53:33;16.07;;;14.33;;
2320;SDS011;15376;48.540;9.268;2023-04-08T07:55:59;39.23;;;29.97;;
2320;SDS011;15376;48.540;9.268;2023-04-08T07:58:25;19.93;;;16.27;;
2320;SDS011;15376;48.540;9.268;2023-04-08T08:00:51;16.43;;;14.63;;
2320;SDS011;15376;48.540;9.268;2023-04-08T08:03:17;15.83;;;13.87;;
2320;SDS011;15376;48.540;9.268;2023-04-08T08:05:42;16.50;;;14.90;;
2320;SDS011;15376;48.540;9.268;2023-04-08T08:08:08;15.83;;;14.23;;
2320;SDS011;15376;48.540;9.268;2023-04-08T08:10:36;17.60;;;14.53;;
2320;SDS011;15376;48.540;9.268;2023-04-08T08:13:02;14.53;;;13.13;;
2320;SDS011;15376;48.540;9.268;2023-04-08T08:15:28;14.23;;;12.83;;
2320;SDS011;15376;48.540;9.268;2023-04-08T08:17:53;18.83;;;13.20;;
2320;SDS011;15376;48.540;9.268;2023-04-08T08:20:19;13.80;;;12.47;;
2320;SDS011;15376;48.540;9.268;2023-04-08T08:22:44;12.43;;;11.10;;
2320;SDS011;15376;48.540;9.268;2023-04-08T08:25:10;13.23;;;11.83;;
2320;SDS011;15376;48.540;9.268;2023-04-08T08:27:35;13.57;;;12.20;;
2320;SDS011;15376;48.540;9.268;2023-04-08T08:30:01;11.83;;;10.73;;
2320;SDS011;15376;48.540;9.268;2023-04-08T08:32:28;15.30;;;11.43;;
2320;SDS011;15376;48.540;9.268;2023-04-08T08:34:53;14.23;;;12.73;;
2320;SDS011;15376;48.540;9.268;2023-04-08T08:37:20;11.40;;;9.70;;
2320;SDS011;15376;48.540;9.268;2023-04-08T08:39:45;13.13;;;11.53;;
2320;SDS011;15376;48.540;9.268;2023-04-08T08:42:23;12.07;;;10.97;;
2320;SDS011;15376;48.540;9.268;2023-04-08T08:44:50;11.77;;;10.63;;
2320;SDS011;15376;48.540;9.268;2023-04-08T08:47:15;12.07;;;10.87;;
2320;SDS011;15376;48.540;9.268;2023-04-08T08:49:41;13.90;;;12.40;;
2320;SDS011;15376;48.540;9.268;2023-04-08T08:52:07;15.17;;;11.63;;
2320;SDS011;15376;48.540;9.268;2023-04-08T08:54:32;11.57;;;10.47;;
2320;SDS011;15376;48.540;9.268;2023-04-08T08:57:00;13.00;;;11.37;;
2320;SDS011;15376;48.540;9.268;2023-04-08T08:59:26;12.93;;;10.70;;
2320;SDS011;15376;48.540;9.268;2023-04-08T09:01:51;12.53;;;11.23;;
2320;SDS011;15376;48.540;9.268;2023-04-08T09:04:17;16.60;;;14.67;;
2320;SDS011;15376;48.540;9.268;2023-04-08T09:06:48;12.93;;;11.40;;
2320;SDS011;15376;48.540;9.268;2023-04-08T09:09:15;15.83;;;11.97;;
2320;SDS011;15376;48.540;9.268;2023-04-08T09:11:42;15.00;;;11.93;;
2320;SDS011;15376;48.540;9.268;2023-04-08T09:14:21;13.57;;;11.50;;
2320;SDS011;15376;48.540;9.268;2023-04-08T09:16:49;13.37;;;11.97;;
2320;SDS011;15376;48.540;9.268;2023-04-08T09:19:15;13.00;;;11.70;;
2320;SDS011;15376;48.540;9.268;2023-04-08T09:21:41;12.03;;;10.93;;
2320;SDS011;15376;48.540;9.268;2023-04-08T09:24:07;12.63;;;11.33;;
2320;SDS011;15376;48.540;9.268;2023-04-08T09:26:33;12.40;;;11.20;;
2320;SDS011;15376;48.540;9.268;2023-04-08T09:31:31;14.40;;;12.87;;
2320;SDS011;15376;48.540;9.268;2023-04-08T09:33:59;14.20;;;12.80;;
2320;SDS011;15376;48.540;9.268;2023-04-08T09:36:27;14.07;;;12.67;;
2320;SDS011;15376;48.540;9.268;2023-04-08T09:38:53;14.87;;;13.47;;
2320;SDS011;15376;48.540;9.268;2023-04-08T09:41:20;13.80;;;12.47;;
2320;SDS011;15376;48.540;9.268;2023-04-08T09:43:50;14.00;;;12.60;;
2320;SDS011;15376;48.540;9.268;2023-04-08T09:46:34;14.40;;;13.00;;
2320;SDS011;15376;48.540;9.268;2023-04-08T09:51:48;13.50;;;12.20;;
2320;SDS011;15376;48.540;9.268;2023-04-08T09:54:21;14.80;;;13.27;;
2320;SDS011;15376;48.540;9.268;2023-04-08T09:56:59;14.20;;;12.87;;
2320;SDS011;15376;48.540;9.268;2023-04-08T09:59:29;14.20;;;12.80;;
2320;SDS011;15376;48.540;9.268;2023-04-08T10:01:59;13.53;;;12.23;;
2320;SDS011;15376;48.540;9.268;2023-04-08T10:04:29;13.20;;;11.80;;
2320;SDS011;15376;48.540;9.268;2023-04-08T10:07:01;15.33;;;13.73;;
2320;SDS011;15376;48.540;9.268;2023-04-08T10:09:30;13.60;;;12.30;;
2320;SDS011;15376;48.540;9.268;2023-04-08T10:11:56;12.43;;;11.23;;
2320;SDS011;15376;48.540;9.268;2023-04-08T10:14:22;13.57;;;12.27;;
2320;SDS011;15376;48.540;9.268;2023-04-08T10:16:47;12.50;;;11.30;;
2320;SDS011;15376;48.540;9.268;2023-04-08T10:27:53;14.60;;;13.03;;
2320;SDS011;15376;48.540;9.268;2023-04-08T10:32:55;15.17;;;13.70;;
2320;SDS011;15376;48.540;9.268;2023-04-08T10:35:30;12.93;;;11.73;;
2320;SDS011;15376;48.540;9.268;2023-04-08T10:37:57;14.70;;;12.40;;
2320;SDS011;15376;48.540;9.268;2023-04-08T10:40:23;13.50;;;12.27;;
2320;SDS011;15376;48.540;9.268;2023-04-08T10:42:57;13.90;;;12.80;;
2320;SDS011;15376;48.540;9.268;2023-04-08T10:45:24;16.67;;;13.70;;
2320;SDS011;15376;48.540;9.268;2023-04-08T10:47:49;15.00;;;13.50;;
2320;SDS011;15376;48.540;9.268;2023-04-08T10:50:15;14.47;;;13.07;;
2320;SDS011;15376;48.540;9.268;2023-04-08T10:55:11;15.17;;;13.73;;
2320;SDS011;15376;48.540;9.268;2023-04-08T10:57:37;14.50;;;13.10;;
2320;SDS011;15376;48.540;9.268;2023-04-08T11:00:05;15.40;;;13.90;;
2320;SDS011;15376;48.540;9.268;2023-04-08T11:02:36;15.37;;;13.73;;
2320;SDS011;15376;48.540;9.268;2023-04-08T11:05:02;14.77;;;13.37;;
2320;SDS011;15376;48.540;9.268;2023-04-08T11:07:28;15.10;;;13.53;;
2320;SDS011;15376;48.540;9.268;2023-04-08T11:09:53;14.63;;;13.33;;
2320;SDS011;15376;48.540;9.268;2023-04-08T11:12:19;14.80;;;13.40;;
2320;SDS011;15376;48.540;9.268;2023-04-08T11:14:45;15.77;;;14.23;;
2320;SDS011;15376;48.540;9.268;2023-04-08T11:17:13;17.50;;;15.20;;
2320;SDS011;15376;48.540;9.268;2023-04-08T11:19:40;15.03;;;13.50;;
2320;SDS011;15376;48.540;9.268;2023-04-08T11:22:06;16.83;;;15.23;;
2320;SDS011;15376;48.540;9.268;2023-04-08T11:24:33;16.70;;;13.67;;
2320;SDS011;15376;48.540;9.268;2023-04-08T11:27:02;15.00;;;13.47;;
2320;SDS011;15376;48.540;9.268;2023-04-08T11:29:30;15.60;;;14.07;;
2320;SDS011;15376;48.540;9.268;2023-04-08T11:31:56;15.50;;;13.90;;
2320;SDS011;15376;48.540;9.268;2023-04-08T11:34:22;16.60;;;13.90;;
2320;SDS011;15376;48.540;9.268;2023-04-08T11:36:49;15.40;;;13.80;;
2320;SDS011;15376;48.540;9.268;2023-04-08T11:39:14;14.87;;;13.40;;
2320;SDS011;15376;48.540;9.268;2023-04-08T11:41:40;15.70;;;14.00;;
2320;SDS011;15376;48.540;9.268;2023-04-08T11:44:05;16.97;;;15.27;;
2320;SDS011;15376;48.540;9.268;2023-04-08T11:46:31;16.60;;;15.00;;
2320;SDS011;15376;48.540;9.268;2023-04-08T11:48:58;15.83;;;14.17;;
2320;SDS011;15376;48.540;9.268;2023-04-08T11:51:27;15.90;;;14.30;;
2320;SDS011;15376;48.540;9.268;2023-04-08T11:53:53;15.77;;;14.07;;
2320;SDS011;15376;48.540;9.268;2023-04-08T11:56:19;17.50;;;15.70;;
2320;SDS011;15376;48.540;9.268;2023-04-08T11:58:47;18.57;;;16.63;;
2320;SDS011;15376;48.540;9.268;2023-04-08T12:01:14;16.37;;;14.87;;
2320;SDS011;15376;48.540;9.268;2023-04-08T12:03:52;15.47;;;13.90;;
2320;SDS011;15376;48.540;9.268;2023-04-08T12:06:19;15.40;;;13.80;;
2320;SDS011;15376;48.540;9.268;2023-04-08T12:08:45;15.80;;;14.20;;
2320;SDS011;15376;48.540;9.268;2023-04-08T12:11:10;15.87;;;14.17;;
2320;SDS011;15376;48.540;9.268;2023-04-08T12:13:36;14.80;;;13.33;;
2320;SDS011;15376;48.540;9.268;2023-04-08T12:16:01;15.30;;;13.90;;
2320;SDS011;15376;48.540;9.268;2023-04-08T12:18:27;15.17;;;13.73;;
2320;SDS011;15376;48.540;9.268;2023-04-08T12:20:52;15.87;;;14.37;;
2320;SDS011;15376;48.540;9.268;2023-04-08T12:23:18;15.50;;;13.47;;
2320;SDS011;15376;48.540;9.268;2023-04-08T12:25:44;17.30;;;15.50;;
2320;SDS011;15376;48.540;9.268;2023-04-08T12:28:09;19.10;;;15.03;;
2320;SDS011;15376;48.540;9.268;2023-04-08T12:30:35;15.37;;;13.77;;
2320;SDS011;15376;48.540;9.268;2023-04-08T12:33:01;15.90;;;14.20;;
2320;SDS011;15376;48.540;9.268;2023-04-08T12:35:26;14.93;;;13.33;;
2320;SDS011;15376;48.540;9.268;2023-04-08T12:37:52;14.53;;;13.00;;
2320;SDS011;15376;48.540;9.268;2023-04-08T12:40:17;14.90;;;13.30;;
2320;SDS011;15376;48.540;9.268;2023-04-08T12:42:43;14.40;;;13.00;;
2320;SDS011;15376;48.540;9.268;2023-04-08T12:45:08;18.27;;;13.43;;
2320;SDS011;15376;48.540;9.268;2023-04-08T12:47:34;14.30;;;12.87;;
2320;SDS011;15376;48.540;9.268;2023-04-08T12:49:59;14.63;;;13.10;;
2320;SDS011;15376;48.540;9.268;2023-04-08T12:52:24;14.63;;;13.13;;
2320;SDS011;15376;48.540;9.268;2023-04-08T12:54:50;14.70;;;13.20;;
2320;SDS011;15376;48.540;9.268;2023-04-08T12:57:15;14.17;;;12.63;;
2320;SDS011;15376;48.540;9.268;2023-04-08T12:59:41;12.70;;;11.37;;
2320;SDS011;15376;48.540;9.268;2023-04-08T13:02:06;16.63;;;14.80;;
2320;SDS011;15376;48.540;9.268;2023-04-08T13:04:32;15.40;;;13.03;;
2320;SDS011;15376;48.540;9.268;2023-04-08T13:06:57;15.93;;;14.23;;
2320;SDS011;15376;48.540;9.268;2023-04-08T13:09:23;13.40;;;12.10;;
2320;SDS011;15376;48.540;9.268;2023-04-08T13:11:49;14.83;;;13.23;;
2320;SDS011;15376;48.540;9.268;2023-04-08T13:14:14;15.30;;;12.60;;
2320;SDS011;15376;48.540;9.268;2023-04-08T13:16:40;15.37;;;12.70;;
2320;SDS011;15376;48.540;9.268;2023-04-08T13:19:05;14.83;;;13.20;;
2320;SDS011;15376;48.540;9.268;2023-04-08T13:21:31;15.00;;;13.60;;
2320;SDS011;15376;48.540;9.268;2023-04-08T13:23:56;15.90;;;13.83;;
2320;SDS011;15376;48.540;9.268;2023-04-08T13:26:21;15.27;;;13.77;;
2320;SDS011;15376;48.540;9.268;2023-04-08T13:28:47;14.83;;;13.30;;
2320;SDS011;15376;48.540;9.268;2023-04-08T13:31:12;14.93;;;13.20;;
2320;SDS011;15376;48.540;9.268;2023-04-08T13:33:37;14.20;;;12.80;;
2320;SDS011;15376;48.540;9.268;2023-04-08T13:36:03;17.37;;;14.17;;
2320;SDS011;15376;48.540;9.268;2023-04-08T13:38:28;15.97;;;14.37;;
2320;SDS011;15376;48.540;9.268;2023-04-08T13:40:54;15.73;;;14.27;;
2320;SDS011;15376;48.540;9.268;2023-04-08T13:43:20;16.97;;;14.00;;
2320;SDS011;15376;48.540;9.268;2023-04-08T13:45:46;15.77;;;14.17;;
2320;SDS011;15376;48.540;9.268;2023-04-08T13:48:12;16.07;;;14.57;;
2320;SDS011;15376;48.540;9.268;2023-04-08T13:50:37;17.00;;;15.30;;
2320;SDS011;15376;48.540;9.268;2023-04-08T13:53:04;15.87;;;14.43;;
2320;SDS011;15376;48.540;9.268;2023-04-08T13:55:29;15.87;;;14.27;;
2320;SDS011;15376;48.540;9.268;2023-04-08T13:57:55;17.20;;;15.50;;
2320;SDS011;15376;48.540;9.268;2023-04-08T14:00:20;15.03;;;13.60;;
2320;SDS011;15376;48.540;9.268;2023-04-08T14:02:46;16.90;;;15.20;;
2320;SDS011;15376;48.540;9.268;2023-04-08T14:05:11;17.63;;;15.80;;
2320;SDS011;15376;48.540;9.268;2023-04-08T14:07:37;16.60;;;15.07;;
2320;SDS011;15376;48.540;9.268;2023-04-08T14:10:02;16.57;;;14.90;;
2320;SDS011;15376;48.540;9.268;2023-04-08T14:12:28;33.10;;;29.43;;
2320;SDS011;15376;48.540;9.268;2023-04-08T14:14:53;47.23;;;37.43;;
2320;SDS011;15376;48.540;9.268;2023-04-08T14:17:18;24.97;;;20.80;;
2320;SDS011;15376;48.540;9.268;2023-04-08T14:19:44;19.93;;;17.87;;
2320;SDS011;15376;48.540;9.268;2023-04-08T14:22:09;20.00;;;18.00;;
2320;SDS011;15376;48.540;9.268;2023-04-08T14:24:36;18.30;;;16.40;;
2320;SDS011;15376;48.540;9.268;2023-04-08T14:27:01;19.00;;;15.67;;
2320;SDS011;15376;48.540;9.268;2023-04-08T14:29:27;16.83;;;14.00;;
2320;SDS011;15376;48.540;9.268;2023-04-08T14:31:52;17.43;;;15.33;;
2320;SDS011;15376;48.540;9.268;2023-04-08T14:34:18;16.10;;;14.60;;
2320;SDS011;15376;48.540;9.268;2023-04-08T14:36:43;17.87;;;15.53;;
2320;SDS011;15376;48.540;9.268;2023-04-08T14:39:09;18.10;;;16.30;;
2320;SDS011;15376;48.540;9.268;2023-04-08T14:41:36;14.60;;;13.10;;
2320;SDS011;15376;48.540;9.268;2023-04-08T14:44:01;15.37;;;13.90;;
2320;SDS011;15376;48.540;9.268;2023-04-08T14:46:28;15.80;;;14.20;;
2320;SDS011;15376;48.540;9.268;2023-04-08T14:48:54;15.40;;;14.00;;
2320;SDS011;15376;48.540;9.268;2023-04-08T14:51:19;15.03;;;13.53;;
2320;SDS011;15376;48.540;9.268;2023-04-08T14:53:44;16.30;;;14.70;;